Time;durP1;ratioP1;P1;durP2;ratioP2;P2;SDS_P1;SDS_P2;PMS_P1;PMS_P2;Temp;Humidity;BMP_temperature;BMP_pressure;BME280_temperature;BME280_humidity;BME280_pressure;Samples;Min_cycle;Max_cycle;Signal;HPM_P1;HPM_P2
2022/01/29 00:00:54;;;;;;;54.83;20.50;;;6.00;99.90;;;;;;5043213;28;20177;-79
2022/01/29 00:03:23;;;;;;;55.10;21.70;;;6.00;99.90;;;;;;5045357;28;20176;-79
2022/01/29 00:05:49;;;;;;;55.90;20.37;;;6.00;99.90;;;;;;5046924;28;20225;-79
2022/01/29 00:08:16;;;;;;;54.23;20.53;;;6.00;99.90;;;;;;5043320;28;20196;-79
2022/01/29 00:10:43;;;;;;;56.57;20.33;;;6.00;99.90;;;;;;5045459;28;20198;-79
2022/01/29 00:13:10;;;;;;;46.47;18.20;;;6.00;99.90;;;;;;5042694;28;20193;-79
2022/01/29 00:15:35;;;;;;;53.57;19.67;;;6.10;99.90;;;;;;5043476;28;20245;-79
2022/01/29 00:18:01;;;;;;;55.70;21.00;;;6.00;99.90;;;;;;5059510;28;20184;-79
2022/01/29 00:20:27;;;;;;;47.47;18.73;;;6.00;99.90;;;;;;5042434;28;20196;-79
2022/01/29 00:22:53;;;;;;;47.73;19.60;;;6.10;99.90;;;;;;5042200;28;20199;-77
2022/01/29 00:25:19;;;;;;;52.07;20.20;;;6.00;99.90;;;;;;5052255;28;20669;-77
2022/01/29 00:27:45;;;;;;;54.53;20.03;;;6.10;99.90;;;;;;5043212;28;20176;-79
2022/01/29 00:30:16;;;;;;;50.00;19.03;;;6.10;99.90;;;;;;5045338;28;20704;-79
2022/01/29 00:32:42;;;;;;;46.90;19.27;;;6.10;99.90;;;;;;5057471;28;20687;-79
2022/01/29 00:35:08;;;;;;;46.83;19.10;;;6.10;99.90;;;;;;5039594;28;20220;-79
2022/01/29 00:37:34;;;;;;;46.77;17.70;;;6.10;99.90;;;;;;5041484;28;20213;-79
2022/01/29 00:40:00;;;;;;;48.80;19.63;;;6.10;99.90;;;;;;5041209;28;20200;-79
2022/01/29 00:42:25;;;;;;;49.17;19.37;;;6.10;99.90;;;;;;5042766;28;20179;-79
2022/01/29 00:44:52;;;;;;;46.20;18.00;;;6.00;99.90;;;;;;5052674;28;20240;-79
2022/01/29 00:47:18;;;;;;;46.90;19.57;;;6.00;99.90;;;;;;5052528;28;20271;-80
2022/01/29 00:49:44;;;;;;;46.13;18.70;;;6.00;99.90;;;;;;5068645;28;20175;-80
2022/01/29 00:52:10;;;;;;;49.87;18.30;;;6.10;99.90;;;;;;5049796;28;20178;-80
2022/01/29 00:54:37;;;;;;;44.87;15.87;;;6.00;99.90;;;;;;5053328;28;20214;-79
2022/01/29 00:57:03;;;;;;;44.93;17.37;;;6.10;99.90;;;;;;5052340;28;20256;-80
2022/01/29 00:59:31;;;;;;;41.20;17.20;;;6.10;99.90;;;;;;5049911;28;20199;-80
2022/01/29 01:01:57;;;;;;;44.53;18.30;;;6.00;99.90;;;;;;5066822;28;20261;-79
2022/01/29 01:04:22;;;;;;;41.37;16.63;;;6.10;99.90;;;;;;5045862;28;20647;-79
2022/01/29 01:06:48;;;;;;;48.67;17.93;;;6.10;99.90;;;;;;5038096;28;20561;-78
2022/01/29 01:09:14;;;;;;;48.30;17.20;;;6.10;99.90;;;;;;5035056;28;20182;-77
2022/01/29 01:11:40;;;;;;;42.57;15.70;;;6.00;99.90;;;;;;5034778;28;20640;-77
2022/01/29 01:14:05;;;;;;;45.83;17.53;;;6.10;99.90;;;;;;5034759;28;20568;-78
2022/01/29 01:16:31;;;;;;;45.63;17.30;;;6.10;99.90;;;;;;5034738;28;20603;-77
2022/01/29 01:18:56;;;;;;;36.43;14.93;;;6.10;99.90;;;;;;5034972;28;20205;-77
2022/01/29 01:21:22;;;;;;;43.33;17.17;;;6.10;99.90;;;;;;5034868;28;20184;-78
2022/01/29 01:23:48;;;;;;;49.73;17.77;;;6.10;99.90;;;;;;5034655;28;20235;-77
2022/01/29 01:26:13;;;;;;;40.77;15.93;;;6.10;99.90;;;;;;5034631;28;20194;-77
2022/01/29 01:28:39;;;;;;;48.00;16.93;;;6.10;99.90;;;;;;5034638;28;20224;-77
2022/01/29 01:31:04;;;;;;;44.37;17.67;;;6.00;99.90;;;;;;5034090;28;20209;-77
2022/01/29 01:33:30;;;;;;;45.73;17.80;;;6.10;99.90;;;;;;5034341;28;20219;-77
2022/01/29 01:36:00;;;;;;;45.23;16.97;;;6.00;99.90;;;;;;5034425;28;20196;-77
2022/01/29 01:41:36;;;;;;;45.20;16.47;;;6.00;99.90;;;;;;4976664;28;20174;-80
2022/01/29 01:44:03;;;;;;;43.30;16.83;;;6.00;99.90;;;;;;4977610;28;20181;-79
2022/01/29 01:46:29;;;;;;;46.13;17.10;;;6.10;99.90;;;;;;5010656;28;20685;-79
2022/01/29 01:48:55;;;;;;;45.40;17.73;;;6.00;99.90;;;;;;5040022;28;20236;-79
2022/01/29 01:51:22;;;;;;;54.57;17.37;;;6.00;99.90;;;;;;5041644;28;20244;-79
2022/01/29 01:53:48;;;;;;;41.80;16.60;;;6.10;99.90;;;;;;5041843;28;20209;-79
2022/01/29 01:56:13;;;;;;;43.27;17.23;;;6.00;99.90;;;;;;5040762;28;20204;-79
2022/01/29 01:58:39;;;;;;;46.90;17.33;;;6.10;99.90;;;;;;5036639;28;20176;-77
2022/01/29 02:01:05;;;;;;;48.63;15.77;;;6.00;99.90;;;;;;5033566;28;20633;-78
2022/01/29 02:03:31;;;;;;;48.80;17.83;;;6.00;99.90;;;;;;5034262;28;20164;-77
2022/01/29 02:05:58;;;;;;;49.20;17.97;;;6.10;99.90;;;;;;5034188;28;20287;-78
2022/01/29 02:08:24;;;;;;;51.37;17.60;;;6.00;99.90;;;;;;5033705;28;20195;-77
2022/01/29 02:10:51;;;;;;;45.07;17.83;;;6.10;99.90;;;;;;5034145;28;20622;-78
2022/01/29 02:13:17;;;;;;;43.83;16.50;;;6.10;99.90;;;;;;5034006;28;20176;-77
2022/01/29 02:15:42;;;;;;;47.37;17.60;;;6.10;99.90;;;;;;5033975;28;20196;-77
2022/01/29 02:18:13;;;;;;;43.90;16.30;;;6.10;99.90;;;;;;5034124;28;20184;-77
2022/01/29 02:20:39;;;;;;;50.43;17.63;;;6.00;99.90;;;;;;5034132;28;20170;-77
2022/01/29 02:23:05;;;;;;;46.60;17.03;;;6.00;99.90;;;;;;5033691;28;20641;-77
2022/01/29 02:25:34;;;;;;;45.60;17.57;;;6.00;99.90;;;;;;5033836;28;20229;-77
2022/01/29 02:28:14;;;;;;;45.73;17.50;;;6.00;99.90;;;;;;5033974;28;20181;-77
2022/01/29 02:30:57;;;;;;;47.83;18.00;;;6.00;99.90;;;;;;5033655;28;20161;-77
2022/01/29 02:33:23;;;;;;;46.47;18.07;;;6.00;99.90;;;;;;5033751;28;20184;-77
2022/01/29 02:35:50;;;;;;;45.27;17.50;;;6.00;99.90;;;;;;5033825;28;20205;-77
2022/01/29 02:38:20;;;;;;;49.17;19.27;;;6.00;99.90;;;;;;5033982;28;20265;-77
2022/01/29 02:40:49;;;;;;;44.40;18.13;;;6.00;99.90;;;;;;5034018;28;20160;-77
2022/01/29 02:43:18;;;;;;;47.47;17.30;;;6.00;99.90;;;;;;5033679;28;20543;-77
2022/01/29 02:45:45;;;;;;;43.07;16.53;;;6.00;99.90;;;;;;5033402;28;20204;-76
2022/01/29 02:48:11;;;;;;;48.07;17.57;;;6.00;99.90;;;;;;5033784;28;20695;-77
2022/01/29 02:50:37;;;;;;;42.37;16.50;;;6.00;99.90;;;;;;5033721;28;20629;-77
2022/01/29 02:53:04;;;;;;;40.80;16.53;;;6.00;99.90;;;;;;5033661;28;20203;-77
2022/01/29 02:55:30;;;;;;;48.10;16.63;;;6.00;99.90;;;;;;5033535;28;20209;-77
2022/01/29 02:57:56;;;;;;;44.47;14.97;;;6.00;99.90;;;;;;5033715;28;20229;-77
2022/01/29 03:00:23;;;;;;;39.80;14.87;;;5.90;99.90;;;;;;5033567;28;20188;-76
2022/01/29 03:02:49;;;;;;;37.40;16.67;;;5.90;99.90;;;;;;5033177;28;20185;-77
2022/01/29 03:05:14;;;;;;;45.83;17.00;;;5.90;99.90;;;;;;5033228;28;20203;-77
2022/01/29 03:07:40;;;;;;;35.47;15.60;;;5.90;99.90;;;;;;5036432;28;20245;-76
2022/01/29 03:10:07;;;;;;;41.70;15.67;;;5.90;99.90;;;;;;5037316;28;20207;-77
2022/01/29 03:12:34;;;;;;;38.90;16.00;;;5.90;99.90;;;;;;5037001;28;20607;-77
2022/01/29 03:14:59;;;;;;;44.87;15.77;;;5.90;99.90;;;;;;5037017;28;20194;-77
2022/01/29 03:17:25;;;;;;;42.73;15.53;;;5.90;99.90;;;;;;5037167;28;20180;-77
2022/01/29 03:19:52;;;;;;;38.63;14.80;;;5.90;99.90;;;;;;5037048;28;20208;-77
2022/01/29 03:22:18;;;;;;;41.17;15.43;;;5.90;99.90;;;;;;5036788;28;20177;-77
2022/01/29 03:24:44;;;;;;;38.27;14.90;;;5.90;99.90;;;;;;5036982;28;20202;-77
2022/01/29 03:27:10;;;;;;;39.53;15.37;;;5.90;99.90;;;;;;5036898;28;20686;-77
2022/01/29 03:29:36;;;;;;;37.97;15.20;;;6.00;99.90;;;;;;5036839;28;20299;-77
2022/01/29 03:32:02;;;;;;;39.57;15.17;;;5.90;99.90;;;;;;5036608;28;20263;-78
2022/01/29 03:34:28;;;;;;;36.20;15.43;;;6.00;99.90;;;;;;5036657;28;20229;-77
2022/01/29 03:36:55;;;;;;;36.43;13.93;;;5.90;99.90;;;;;;5036718;28;20560;-77
2022/01/29 03:39:23;;;;;;;35.40;15.53;;;6.00;99.90;;;;;;5036827;28;20251;-77
2022/01/29 03:41:48;;;;;;;32.70;13.43;;;6.00;99.90;;;;;;5036158;28;20705;-77
2022/01/29 03:44:14;;;;;;;34.37;13.50;;;6.00;99.90;;;;;;5036500;28;20272;-77
2022/01/29 03:46:40;;;;;;;37.43;15.30;;;6.00;99.90;;;;;;5036225;28;20204;-78
2022/01/29 03:49:05;;;;;;;35.67;14.17;;;6.00;99.90;;;;;;5036576;28;20212;-78
2022/01/29 03:51:31;;;;;;;33.47;13.10;;;6.00;99.90;;;;;;5036690;28;20641;-78
2022/01/29 03:53:57;;;;;;;33.23;14.03;;;6.00;99.90;;;;;;5036451;28;20205;-77
2022/01/29 03:56:22;;;;;;;35.27;14.50;;;6.00;99.90;;;;;;5036344;28;20201;-77
2022/01/29 03:58:48;;;;;;;31.70;13.70;;;6.00;99.90;;;;;;5036362;28;20652;-77
2022/01/29 04:01:14;;;;;;;35.83;14.27;;;6.00;99.90;;;;;;5036162;28;20207;-77
2022/01/29 04:03:40;;;;;;;32.87;13.73;;;6.00;99.90;;;;;;5036201;28;20207;-77
2022/01/29 04:06:06;;;;;;;32.27;13.37;;;6.00;99.90;;;;;;5036031;28;20210;-77
2022/01/29 04:08:33;;;;;;;31.03;13.57;;;6.00;99.90;;;;;;5036320;28;20238;-77
2022/01/29 04:10:59;;;;;;;33.97;14.13;;;6.00;99.90;;;;;;5036417;28;20173;-77
2022/01/29 04:13:27;;;;;;;29.17;14.10;;;6.00;99.90;;;;;;5035792;28;20179;-77
2022/01/29 04:15:52;;;;;;;27.47;12.67;;;6.00;99.90;;;;;;5035943;28;20266;-77
2022/01/29 04:18:18;;;;;;;27.87;12.97;;;6.00;99.90;;;;;;5035242;28;20707;-77
2022/01/29 04:20:44;;;;;;;28.10;12.10;;;6.00;99.90;;;;;;5035994;28;20653;-77
2022/01/29 04:23:10;;;;;;;27.63;12.63;;;6.00;99.90;;;;;;5035407;28;20228;-77
2022/01/29 04:25:36;;;;;;;27.87;11.80;;;6.00;99.90;;;;;;5035765;28;20204;-77
2022/01/29 04:28:03;;;;;;;26.80;12.30;;;6.00;99.90;;;;;;5035847;28;20186;-77
2022/01/29 04:30:39;;;;;;;29.40;12.63;;;6.00;99.90;;;;;;5035821;28;20185;-77
2022/01/29 04:33:27;;;;;;;25.30;12.13;;;6.00;99.90;;;;;;5035761;28;20177;-77
2022/01/29 04:35:53;;;;;;;23.87;12.27;;;6.10;99.90;;;;;;5035528;28;20254;-77
2022/01/29 04:38:19;;;;;;;30.77;12.63;;;6.10;99.90;;;;;;5036213;28;20265;-77
2022/01/29 04:40:45;;;;;;;27.10;12.50;;;6.10;99.90;;;;;;5036010;28;20255;-78
2022/01/29 04:43:11;;;;;;;25.07;11.93;;;6.10;99.90;;;;;;5053695;28;20164;-78
2022/01/29 04:45:36;;;;;;;25.67;11.60;;;6.10;99.90;;;;;;5035622;28;20706;-78
2022/01/29 04:48:02;;;;;;;26.37;12.13;;;6.10;99.90;;;;;;5036426;28;20179;-78
2022/01/29 04:50:28;;;;;;;23.77;11.47;;;6.10;99.90;;;;;;5035267;28;20187;-78
2022/01/29 04:52:54;;;;;;;23.90;11.17;;;6.10;99.90;;;;;;5035614;28;20173;-78
2022/01/29 04:55:20;;;;;;;25.37;11.90;;;6.10;99.90;;;;;;5035109;28;20205;-78
2022/01/29 04:57:45;;;;;;;23.57;11.43;;;6.10;99.90;;;;;;5053447;28;20630;-77
2022/01/29 05:00:20;;;;;;;25.00;11.33;;;6.10;99.90;;;;;;5035797;28;20173;-78
2022/01/29 05:02:50;;;;;;;26.03;12.37;;;6.10;99.90;;;;;;5035185;28;20195;-78
2022/01/29 05:05:16;;;;;;;24.83;12.00;;;6.10;99.90;;;;;;5035020;28;20640;-78
2022/01/29 05:07:42;;;;;;;23.60;11.17;;;6.10;99.90;;;;;;5035117;28;20281;-77
2022/01/29 05:10:08;;;;;;;25.40;11.83;;;6.10;99.90;;;;;;5034965;28;20255;-78
2022/01/29 05:12:52;;;;;;;22.77;10.70;;;6.10;99.90;;;;;;5034703;28;20176;-78
2022/01/29 05:28:44;;;;;;;20.37;10.10;;;6.10;99.90;;;;;;5053053;28;20186;-77
2022/01/29 05:31:09;;;;;;;23.77;11.17;;;6.10;99.90;;;;;;5034619;28;20645;-77
2022/01/29 05:33:35;;;;;;;22.93;10.07;;;6.10;99.90;;;;;;5034929;28;20634;-78
2022/01/29 05:36:01;;;;;;;22.53;10.10;;;6.10;99.90;;;;;;5035202;28;20197;-77
2022/01/29 05:38:27;;;;;;;22.00;10.10;;;6.20;99.90;;;;;;5034664;28;20171;-77
2022/01/29 05:40:55;;;;;;;21.27;9.87;;;6.20;99.90;;;;;;5034548;28;20253;-77
2022/01/29 05:43:21;;;;;;;18.90;8.93;;;6.20;99.90;;;;;;5034470;28;20174;-77
2022/01/29 05:45:47;;;;;;;21.77;10.67;;;6.20;99.90;;;;;;5034136;28;20231;-77
2022/01/29 05:48:12;;;;;;;26.03;10.43;;;6.20;99.90;;;;;;5034389;28;20178;-77
2022/01/29 05:50:38;;;;;;;23.70;10.87;;;6.20;99.90;;;;;;5034567;28;20239;-77
2022/01/29 05:53:04;;;;;;;21.33;10.27;;;6.20;99.90;;;;;;5034321;28;20223;-77
2022/01/29 05:55:30;;;;;;;25.53;11.43;;;6.20;99.90;;;;;;5034293;28;20712;-77
2022/01/29 05:57:56;;;;;;;25.80;11.80;;;6.20;99.90;;;;;;5034269;28;20172;-77
2022/01/29 06:00:22;;;;;;;24.60;11.53;;;6.20;99.90;;;;;;5034841;28;20169;-78
2022/01/29 06:02:58;;;;;;;24.60;10.90;;;6.20;99.90;;;;;;5034120;28;20615;-78
2022/01/29 06:05:23;;;;;;;27.77;11.87;;;6.20;99.90;;;;;;5034100;28;20202;-77
2022/01/29 06:07:50;;;;;;;33.33;13.40;;;6.20;99.90;;;;;;5034074;28;20189;-77
2022/01/29 06:10:16;;;;;;;28.93;12.80;;;6.20;99.90;;;;;;5034247;28;20553;-77
2022/01/29 06:12:41;;;;;;;31.67;13.70;;;6.30;99.90;;;;;;5034037;28;20171;-78
2022/01/29 06:15:08;;;;;;;34.47;14.00;;;6.30;99.90;;;;;;5034039;28;20203;-77
2022/01/29 06:17:33;;;;;;;32.53;13.57;;;6.30;99.90;;;;;;5034111;28;20165;-77
2022/01/29 06:19:59;;;;;;;36.20;14.40;;;6.30;99.90;;;;;;5034519;28;20179;-77
2022/01/29 06:22:26;;;;;;;36.23;15.00;;;6.30;99.90;;;;;;5033996;28;20553;-78
2022/01/29 06:24:51;;;;;;;35.60;15.27;;;6.30;99.90;;;;;;5034112;28;20260;-77
2022/01/29 06:27:17;;;;;;;35.60;14.67;;;6.30;99.90;;;;;;5034124;28;20331;-77
2022/01/29 06:29:43;;;;;;;41.97;14.57;;;6.30;99.90;;;;;;5052247;28;20663;-77
2022/01/29 06:32:08;;;;;;;42.37;15.77;;;6.30;99.90;;;;;;5033897;28;20589;-77
2022/01/29 06:34:34;;;;;;;42.63;16.03;;;6.30;99.90;;;;;;5033914;28;20295;-78
2022/01/29 06:37:00;;;;;;;33.60;14.73;;;6.30;99.90;;;;;;5033941;28;20261;-77
2022/01/29 06:39:25;;;;;;;37.33;14.67;;;6.30;99.90;;;;;;5034151;28;20179;-77
2022/01/29 06:41:51;;;;;;;37.00;15.40;;;6.30;99.90;;;;;;5035839;28;20645;-77
2022/01/29 06:44:16;;;;;;;38.93;16.03;;;6.30;99.90;;;;;;5037816;28;20685;-78
2022/01/29 06:46:42;;;;;;;40.20;14.53;;;6.40;99.90;;;;;;5037427;28;20287;-77
2022/01/29 06:49:08;;;;;;;46.17;16.50;;;6.30;99.90;;;;;;5037704;28;20204;-77
2022/01/29 06:51:33;;;;;;;42.33;15.07;;;6.40;99.90;;;;;;5037736;28;20180;-77
2022/01/29 06:53:59;;;;;;;43.73;16.20;;;6.40;99.90;;;;;;5037459;28;20569;-77
2022/01/29 06:56:24;;;;;;;48.37;16.90;;;6.40;99.90;;;;;;5037593;28;20666;-78
2022/01/29 06:58:50;;;;;;;37.90;15.17;;;6.40;99.90;;;;;;5037616;28;20267;-78
2022/01/29 07:01:16;;;;;;;44.13;16.07;;;6.40;99.90;;;;;;5037037;28;20173;-77
2022/01/29 07:03:41;;;;;;;41.00;15.20;;;6.40;99.90;;;;;;5037647;28;20603;-78
2022/01/29 07:06:07;;;;;;;45.23;16.20;;;6.40;99.90;;;;;;5037679;28;20547;-77
2022/01/29 07:08:37;;;;;;;42.37;15.87;;;6.50;99.90;;;;;;5037732;28;20173;-77
2022/01/29 07:11:02;;;;;;;44.20;15.97;;;6.50;99.90;;;;;;5037300;28;20168;-78
2022/01/29 07:13:28;;;;;;;43.90;16.00;;;6.50;99.90;;;;;;5037310;28;20176;-78
2022/01/29 07:15:54;;;;;;;46.07;16.83;;;6.50;99.90;;;;;;5037087;28;20193;-78
2022/01/29 07:18:20;;;;;;;48.80;16.80;;;6.50;99.90;;;;;;5037352;28;20208;-78
2022/01/29 07:20:47;;;;;;;35.53;13.17;;;6.50;99.90;;;;;;5037535;28;20174;-78
2022/01/29 07:23:13;;;;;;;48.27;16.90;;;6.50;99.90;;;;;;5037620;28;20626;-78
2022/01/29 07:25:39;;;;;;;50.60;17.37;;;6.60;99.90;;;;;;5055619;28;20207;-77
2022/01/29 07:28:04;;;;;;;40.33;14.90;;;6.50;99.90;;;;;;5037315;28;20247;-78
2022/01/29 07:30:30;;;;;;;43.47;15.63;;;6.60;99.90;;;;;;5037147;28;20173;-78
2022/01/29 07:32:56;;;;;;;47.87;16.23;;;6.60;99.90;;;;;;5037157;28;20180;-78
2022/01/29 07:35:22;;;;;;;43.50;16.63;;;6.60;99.90;;;;;;5037283;28;20309;-78
2022/01/29 07:37:47;;;;;;;45.47;16.87;;;6.60;99.90;;;;;;5038779;28;20165;-78
2022/01/29 07:40:13;;;;;;;44.93;17.23;;;6.60;99.90;;;;;;5037216;28;20222;-77
2022/01/29 07:42:39;;;;;;;41.77;16.90;;;6.60;99.90;;;;;;5036954;28;20173;-77
2022/01/29 07:45:05;;;;;;;52.73;17.90;;;6.60;99.90;;;;;;5037050;28;20517;-77
2022/01/29 07:47:31;;;;;;;49.30;17.57;;;6.60;99.90;;;;;;5036691;28;20173;-77
2022/01/29 07:49:56;;;;;;;45.83;17.70;;;6.60;99.90;;;;;;5037264;28;20170;-76
2022/01/29 07:52:22;;;;;;;53.53;19.50;;;6.70;99.90;;;;;;5035363;28;20218;-76
2022/01/29 07:54:48;;;;;;;57.57;20.10;;;6.60;99.90;;;;;;5036055;28;20231;-76
2022/01/29 07:57:13;;;;;;;56.77;19.33;;;6.70;99.90;;;;;;5036317;28;20207;-75
2022/01/29 07:59:39;;;;;;;60.33;20.73;;;6.70;99.90;;;;;;5036422;28;20173;-75
2022/01/29 08:02:04;;;;;;;55.53;18.90;;;6.70;99.90;;;;;;5035603;28;20169;-75
2022/01/29 08:04:30;;;;;;;53.97;18.63;;;6.70;99.90;;;;;;5036248;28;20183;-75
2022/01/29 08:06:56;;;;;;;52.77;19.90;;;6.70;99.90;;;;;;5035967;28;20733;-75
2022/01/29 08:09:21;;;;;;;56.30;19.40;;;6.70;99.90;;;;;;5036202;28;20211;-75
2022/01/29 08:11:47;;;;;;;52.23;17.70;;;6.70;99.90;;;;;;5035982;28;20176;-75
2022/01/29 08:14:14;;;;;;;51.30;19.20;;;6.80;99.90;;;;;;5035865;28;20218;-75
2022/01/29 08:16:40;;;;;;;52.90;19.70;;;6.80;99.90;;;;;;5035879;28;20218;-75
2022/01/29 08:19:05;;;;;;;56.33;19.57;;;6.80;99.90;;;;;;5035994;28;20203;-75
2022/01/29 08:21:31;;;;;;;51.77;18.67;;;6.80;99.90;;;;;;5035637;28;20174;-76
2022/01/29 08:23:57;;;;;;;51.10;19.00;;;6.80;99.90;;;;;;5035920;28;20180;-75
2022/01/29 08:26:22;;;;;;;53.07;19.40;;;6.80;99.90;;;;;;5052381;28;20200;-74
2022/01/29 08:28:48;;;;;;;50.43;19.67;;;6.80;99.90;;;;;;5035398;28;20653;-75
2022/01/29 08:31:14;;;;;;;55.60;18.90;;;6.80;99.90;;;;;;5035406;28;20179;-75
2022/01/29 08:33:39;;;;;;;46.93;17.63;;;6.80;99.90;;;;;;5035905;28;20179;-75
2022/01/29 08:36:07;;;;;;;49.80;18.97;;;6.90;99.90;;;;;;5035882;28;20191;-75
2022/01/29 08:38:33;;;;;;;50.67;18.27;;;6.90;99.90;;;;;;5035565;28;20229;-75
2022/01/29 08:40:58;;;;;;;46.37;17.60;;;6.90;99.90;;;;;;5035564;28;20184;-75
2022/01/29 08:43:25;;;;;;;44.03;16.53;;;7.00;99.90;;;;;;5035318;28;20656;-75
2022/01/29 08:45:52;;;;;;;42.23;16.57;;;6.90;99.90;;;;;;5034572;28;20200;-75
2022/01/29 08:48:18;;;;;;;51.20;16.63;;;7.00;99.90;;;;;;5035172;28;20279;-75
2022/01/29 08:50:44;;;;;;;45.27;16.17;;;7.00;99.90;;;;;;5035312;28;20188;-75
2022/01/29 08:53:10;;;;;;;36.23;15.53;;;7.00;99.90;;;;;;5034889;28;20177;-75
2022/01/29 08:55:37;;;;;;;41.40;15.80;;;7.00;99.90;;;;;;5034773;28;20255;-75
2022/01/29 08:58:08;;;;;;;36.77;14.90;;;7.00;99.90;;;;;;5035072;28;20544;-75
2022/01/29 09:00:38;;;;;;;35.97;14.60;;;7.00;99.90;;;;;;5035196;28;20256;-75
2022/01/29 09:03:04;;;;;;;32.47;13.10;;;7.10;99.90;;;;;;5034988;28;20196;-75
2022/01/29 09:05:30;;;;;;;34.27;13.77;;;7.10;99.90;;;;;;5034560;28;20689;-75
2022/01/29 09:07:56;;;;;;;31.20;13.47;;;7.10;99.90;;;;;;5034814;28;20811;-76
2022/01/29 09:10:22;;;;;;;32.73;12.13;;;7.10;99.90;;;;;;5034939;28;20238;-75
2022/01/29 09:12:48;;;;;;;28.97;12.50;;;7.10;99.90;;;;;;5034576;28;20174;-75
2022/01/29 09:15:14;;;;;;;29.73;12.93;;;7.20;99.90;;;;;;5034661;28;20197;-76
2022/01/29 09:17:41;;;;;;;30.70;12.70;;;7.20;99.90;;;;;;5034686;28;20626;-75
2022/01/29 09:20:08;;;;;;;32.40;12.53;;;7.20;99.90;;;;;;5052668;28;20528;-75
2022/01/29 09:22:34;;;;;;;26.97;12.13;;;7.20;99.90;;;;;;5052359;28;20167;-75
2022/01/29 09:25:00;;;;;;;25.50;12.10;;;7.30;99.90;;;;;;5034614;28;20592;-74
2022/01/29 09:27:25;;;;;;;27.30;12.30;;;7.30;99.90;;;;;;5034651;28;20178;-75
2022/01/29 09:29:51;;;;;;;24.40;12.07;;;7.30;99.90;;;;;;5034622;28;20169;-74
2022/01/29 09:32:16;;;;;;;23.53;11.13;;;7.30;99.90;;;;;;5034211;28;20181;-76
2022/01/29 09:34:42;;;;;;;27.90;11.90;;;7.30;99.90;;;;;;5034070;28;20207;-76
2022/01/29 09:37:08;;;;;;;25.47;11.20;;;7.30;99.90;;;;;;5034578;28;20185;-76
2022/01/29 09:39:33;;;;;;;25.10;10.63;;;7.40;99.90;;;;;;5034192;28;20170;-76
2022/01/29 09:42:00;;;;;;;27.87;11.70;;;7.40;99.90;;;;;;5034071;28;20171;-76
2022/01/29 09:44:27;;;;;;;24.97;11.47;;;7.40;99.90;;;;;;5034397;28;20180;-75
2022/01/29 09:46:53;;;;;;;22.30;11.00;;;7.40;99.90;;;;;;5033599;28;20543;-75
2022/01/29 09:49:19;;;;;;;22.57;10.63;;;7.50;99.90;;;;;;5034340;28;20179;-75
2022/01/29 09:51:44;;;;;;;22.90;11.27;;;7.50;99.90;;;;;;5034181;28;20596;-75
2022/01/29 09:54:10;;;;;;;21.47;10.70;;;7.50;99.90;;;;;;5034160;28;20677;-75
2022/01/29 09:56:36;;;;;;;20.37;9.90;;;7.60;99.90;;;;;;5034128;28;20194;-75
2022/01/29 09:59:04;;;;;;;20.00;9.87;;;7.60;99.90;;;;;;5034356;28;20740;-76
2022/01/29 10:01:30;;;;;;;20.83;9.97;;;7.60;99.90;;;;;;5033905;28;20218;-75
2022/01/29 10:03:59;;;;;;;19.80;9.60;;;7.60;99.90;;;;;;5034194;28;20265;-75
2022/01/29 10:06:25;;;;;;;21.90;9.70;;;7.60;99.90;;;;;;5033912;28;20204;-76
2022/01/29 10:08:50;;;;;;;19.70;10.13;;;7.70;99.90;;;;;;5034102;28;20264;-77
2022/01/29 10:11:23;;;;;;;19.70;10.97;;;7.60;99.90;;;;;;5033748;28;20195;-76
2022/01/29 10:13:49;;;;;;;18.43;9.47;;;7.70;99.90;;;;;;5033595;28;20173;-77
2022/01/29 10:16:20;;;;;;;19.27;10.33;;;7.70;99.90;;;;;;5032424;28;20231;-75
2022/01/29 10:18:57;;;;;;;21.23;10.40;;;7.70;99.90;;;;;;5037422;28;20211;-75
2022/01/29 10:21:25;;;;;;;19.70;10.13;;;7.80;99.90;;;;;;5036467;28;20167;-75
2022/01/29 10:24:03;;;;;;;19.07;10.57;;;7.80;99.90;;;;;;5034880;28;20211;-75
2022/01/29 10:26:34;;;;;;;19.53;10.73;;;7.80;99.90;;;;;;5036862;28;20705;-75
2022/01/29 10:29:03;;;;;;;19.27;9.57;;;7.80;99.90;;;;;;5037253;28;20170;-77
2022/01/29 10:31:46;;;;;;;20.50;10.50;;;7.80;99.90;;;;;;5037058;28;20281;-76
2022/01/29 10:34:33;;;;;;;18.83;9.60;;;7.90;99.90;;;;;;5028323;28;20202;-76
2022/01/29 10:37:15;;;;;;;15.87;9.73;;;7.90;99.90;;;;;;5016545;28;20208;-77
2022/01/29 10:39:59;;;;;;;18.00;9.20;;;7.90;99.90;;;;;;5017071;28;20177;-75
2022/01/29 10:42:27;;;;;;;15.00;9.27;;;8.00;99.90;;;;;;5016952;28;20170;-76
2022/01/29 10:45:02;;;;;;;18.47;9.50;;;8.00;99.90;;;;;;5016810;28;20189;-76
2022/01/29 10:47:27;;;;;;;17.93;9.27;;;8.00;99.90;;;;;;5016635;28;20178;-74
2022/01/29 10:50:00;;;;;;;15.90;9.23;;;8.10;99.90;;;;;;5016908;28;20526;-75
2022/01/29 10:52:34;;;;;;;15.53;8.87;;;8.10;99.90;;;;;;5016591;28;20184;-75
2022/01/29 10:55:01;;;;;;;18.33;9.23;;;8.10;99.90;;;;;;5016826;28;20209;-75
2022/01/29 10:57:40;;;;;;;16.20;9.10;;;8.10;99.90;;;;;;5016531;28;20616;-75
2022/01/29 11:00:07;;;;;;;13.73;8.63;;;8.10;99.90;;;;;;5017113;28;20171;-75
2022/01/29 11:02:33;;;;;;;14.97;8.70;;;8.10;99.90;;;;;;5016563;28;20202;-75
2022/01/29 11:05:02;;;;;;;15.37;8.87;;;8.10;99.90;;;;;;5034878;28;20186;-75
2022/01/29 11:07:29;;;;;;;16.20;8.37;;;8.20;99.90;;;;;;5035810;28;20193;-75
2022/01/29 11:09:55;;;;;;;14.47;8.40;;;8.20;99.90;;;;;;5037106;28;20187;-74
2022/01/29 11:12:23;;;;;;;14.57;8.47;;;8.20;99.90;;;;;;5036926;28;20324;-77
2022/01/29 11:14:52;;;;;;;14.27;7.83;;;8.20;99.90;;;;;;5036597;28;20208;-76
2022/01/29 11:17:19;;;;;;;14.90;8.57;;;8.20;99.90;;;;;;5021879;28;20201;-76
2022/01/29 11:19:51;;;;;;;12.77;7.80;;;8.30;99.90;;;;;;5017569;28;20180;-75
2022/01/29 11:22:28;;;;;;;13.67;8.27;;;8.30;99.90;;;;;;5034719;28;20202;-75
2022/01/29 11:25:00;;;;;;;16.90;9.50;;;8.30;99.90;;;;;;5052603;28;20717;-75
2022/01/29 11:27:27;;;;;;;15.70;8.30;;;8.30;99.90;;;;;;5037152;28;20571;-76
2022/01/29 11:30:08;;;;;;;15.30;8.60;;;8.40;99.90;;;;;;5036849;28;20177;-76
2022/01/29 11:32:48;;;;;;;17.03;8.90;;;8.40;99.90;;;;;;5037010;28;20271;-76
2022/01/29 11:35:23;;;;;;;16.77;9.07;;;8.40;99.90;;;;;;5036381;28;20209;-77
2022/01/29 11:38:06;;;;;;;16.10;9.30;;;8.50;99.90;;;;;;5036476;28;20174;-77
2022/01/29 11:40:32;;;;;;;16.37;10.17;;;8.50;99.90;;;;;;5033620;28;20179;-77
2022/01/29 11:43:17;;;;;;;17.40;10.13;;;8.50;99.90;;;;;;5029196;28;20649;-77
2022/01/29 11:46:11;;;;;;;15.17;9.83;;;8.50;99.90;;;;;;5035406;28;20200;-77
2022/01/29 11:49:06;;;;;;;20.23;9.93;;;8.60;99.90;;;;;;5035922;28;20217;-77
2022/01/29 11:51:44;;;;;;;17.73;9.83;;;8.70;99.90;;;;;;5053500;28;20174;-77
2022/01/29 11:54:14;;;;;;;17.47;9.23;;;8.70;99.90;;;;;;5035754;28;20770;-77
2022/01/29 11:56:41;;;;;;;17.23;10.00;;;8.80;99.90;;;;;;5035807;28;20626;-76
2022/01/29 11:59:26;;;;;;;18.23;9.63;;;8.90;99.90;;;;;;5022177;28;20263;-77
2022/01/29 12:01:56;;;;;;;17.33;10.17;;;8.90;99.90;;;;;;5015839;28;20182;-76
2022/01/29 12:04:43;;;;;;;16.57;9.83;;;9.00;99.90;;;;;;5016855;28;20682;-78
2022/01/29 12:07:19;;;;;;;16.23;9.17;;;9.10;99.90;;;;;;5017777;28;20252;-78
2022/01/29 12:09:53;;;;;;;17.10;9.00;;;9.20;99.90;;;;;;5016821;28;20608;-77
2022/01/29 12:12:27;;;;;;;13.67;8.93;;;9.20;99.90;;;;;;5015947;28;20173;-77
2022/01/29 12:14:58;;;;;;;13.53;8.50;;;9.20;99.90;;;;;;5014649;28;20201;-77
2022/01/29 12:17:38;;;;;;;14.37;8.23;;;9.20;99.90;;;;;;5015712;28;20295;-77
2022/01/29 12:20:06;;;;;;;14.47;8.70;;;9.30;99.90;;;;;;5016539;28;20170;-78
2022/01/29 12:22:35;;;;;;;14.13;8.37;;;9.30;99.90;;;;;;5015621;28;20541;-78
2022/01/29 12:25:03;;;;;;;12.73;8.13;;;9.20;99.90;;;;;;5016271;28;20286;-78
2022/01/29 12:27:42;;;;;;;12.60;8.60;;;9.20;99.90;;;;;;5016405;28;20189;-78
2022/01/29 12:30:10;;;;;;;12.57;7.40;;;9.30;99.90;;;;;;5016190;28;20170;-77
2022/01/29 12:32:36;;;;;;;12.70;7.63;;;9.30;99.90;;;;;;5015078;28;20176;-77
2022/01/29 12:35:03;;;;;;;15.90;7.57;;;9.30;99.90;;;;;;5023726;28;20203;-76
2022/01/29 12:37:29;;;;;;;11.87;7.53;;;9.30;99.90;;;;;;5032307;28;20715;-76
2022/01/29 12:40:18;;;;;;;13.33;8.20;;;9.40;99.90;;;;;;5014810;28;20362;-78
2022/01/29 12:42:46;;;;;;;12.80;7.33;;;9.40;99.90;;;;;;5014866;28;20222;-76
2022/01/29 12:45:12;;;;;;;12.17;7.80;;;9.40;99.90;;;;;;5015073;28;20270;-76
2022/01/29 12:47:38;;;;;;;12.70;7.87;;;9.40;99.90;;;;;;5015819;28;20673;-77
2022/01/29 12:50:05;;;;;;;9.57;6.77;;;9.40;99.90;;;;;;5032632;28;20624;-77
2022/01/29 12:52:31;;;;;;;12.77;7.33;;;9.40;99.90;;;;;;5014740;28;20189;-77
2022/01/29 12:54:59;;;;;;;12.50;7.27;;;9.40;99.90;;;;;;5014603;28;20293;-77
2022/01/29 12:57:46;;;;;;;11.33;6.93;;;9.40;99.90;;;;;;5032325;28;20162;-77